sensor_id;sensor_type;location;lat;lon;timestamp;temperature;humidity
13960;DHT22;7052;51.050;3.716;2023-11-19T00:00:31;13.10;99.90
13960;DHT22;7052;51.050;3.716;2023-11-19T00:02:58;13.10;99.90
13960;DHT22;7052;51.050;3.716;2023-11-19T00:05:25;13.10;99.90
13960;DHT22;7052;51.050;3.716;2023-11-19T00:07:53;13.10;99.90
13960;DHT22;7052;51.050;3.716;2023-11-19T00:10:22;13.10;99.90
13960;DHT22;7052;51.050;3.716;2023-11-19T00:12:49;13.10;99.90
13960;DHT22;7052;51.050;3.716;2023-11-19T00:15:19;13.10;99.90
13960;DHT22;7052;51.050;3.716;2023-11-19T00:17:51;13.10;99.90
13960;DHT22;7052;51.050;3.716;2023-11-19T00:20:23;13.10;99.90
13960;DHT22;7052;51.050;3.716;2023-11-19T00:22:52;13.10;99.90
13960;DHT22;7052;51.050;3.716;2023-11-19T00:25:29;13.20;99.90
13960;DHT22;7052;51.050;3.716;2023-11-19T00:27:59;13.30;99.90
13960;DHT22;7052;51.050;3.716;2023-11-19T00:30:27;13.20;99.90
13960;DHT22;7052;51.050;3.716;2023-11-19T00:32:54;13.20;99.90
13960;DHT22;7052;51.050;3.716;2023-11-19T00:35:22;13.20;99.90
13960;DHT22;7052;51.050;3.716;2023-11-19T00:37:49;13.30;99.90
13960;DHT22;7052;51.050;3.716;2023-11-19T00:40:33;13.30;99.90
13960;DHT22;7052;51.050;3.716;2023-11-19T00:43:03;13.10;99.90
13960;DHT22;7052;51.050;3.716;2023-11-19T00:45:32;13.10;99.90
13960;DHT22;7052;51.050;3.716;2023-11-19T00:48:05;13.10;99.90
13960;DHT22;7052;51.050;3.716;2023-11-19T00:50:47;13.10;99.90
13960;DHT22;7052;51.050;3.716;2023-11-19T00:53:17;13.00;99.90
13960;DHT22;7052;51.050;3.716;2023-11-19T00:55:47;13.00;99.90
13960;DHT22;7052;51.050;3.716;2023-11-19T00:58:17;13.00;99.90
13960;DHT22;7052;51.050;3.716;2023-11-19T01:00:46;13.00;99.90
13960;DHT22;7052;51.050;3.716;2023-11-19T01:03:13;13.00;99.90
13960;DHT22;7052;51.050;3.716;2023-11-19T01:05:41;13.00;99.90
13960;DHT22;7052;51.050;3.716;2023-11-19T01:08:09;13.00;99.90
13960;DHT22;7052;51.050;3.716;2023-11-19T01:10:37;12.90;99.90
13960;DHT22;7052;51.050;3.716;2023-11-19T01:13:16;12.90;99.90
13960;DHT22;7052;51.050;3.716;2023-11-19T01:15:52;12.90;99.90
13960;DHT22;7052;51.050;3.716;2023-11-19T01:18:31;12.90;99.90
13960;DHT22;7052;51.050;3.716;2023-11-19T01:21:01;12.90;99.90
13960;DHT22;7052;51.050;3.716;2023-11-19T01:23:31;12.80;99.90
13960;DHT22;7052;51.050;3.716;2023-11-19T01:26:00;12.80;99.90
13960;DHT22;7052;51.050;3.716;2023-11-19T01:28:28;12.80;99.90
13960;DHT22;7052;51.050;3.716;2023-11-19T01:31:01;12.80;99.90
13960;DHT22;7052;51.050;3.716;2023-11-19T01:33:32;12.80;99.90
13960;DHT22;7052;51.050;3.716;2023-11-19T01:36:01;12.80;99.90
13960;DHT22;7052;51.050;3.716;2023-11-19T01:38:30;12.80;99.90
13960;DHT22;7052;51.050;3.716;2023-11-19T01:41:04;12.80;99.90
13960;DHT22;7052;51.050;3.716;2023-11-19T01:43:42;12.80;99.90
13960;DHT22;7052;51.050;3.716;2023-11-19T01:46:16;12.80;99.90
13960;DHT22;7052;51.050;3.716;2023-11-19T01:48:57;12.80;99.90
13960;DHT22;7052;51.050;3.716;2023-11-19T01:51:24;12.80;99.90
13960;DHT22;7052;51.050;3.716;2023-11-19T01:53:51;12.80;99.90
13960;DHT22;7052;51.050;3.716;2023-11-19T01:56:19;12.80;99.90
13960;DHT22;7052;51.050;3.716;2023-11-19T01:58:56;12.70;99.90
13960;DHT22;7052;51.050;3.716;2023-11-19T02:01:24;12.70;99.90
13960;DHT22;7052;51.050;3.716;2023-11-19T02:03:51;12.70;99.90
13960;DHT22;7052;51.050;3.716;2023-11-19T02:06:18;12.60;99.90
13960;DHT22;7052;51.050;3.716;2023-11-19T02:08:46;12.60;99.90
13960;DHT22;7052;51.050;3.716;2023-11-19T02:11:15;12.60;99.90
13960;DHT22;7052;51.050;3.716;2023-11-19T02:13:43;12.60;99.90
13960;DHT22;7052;51.050;3.716;2023-11-19T02:16:12;12.50;99.90
13960;DHT22;7052;51.050;3.716;2023-11-19T02:18:39;12.50;99.90
13960;DHT22;7052;51.050;3.716;2023-11-19T02:21:10;12.50;99.90
13960;DHT22;7052;51.050;3.716;2023-11-19T02:23:42;12.50;99.90
13960;DHT22;7052;51.050;3.716;2023-11-19T02:26:16;12.50;99.90
13960;DHT22;7052;51.050;3.716;2023-11-19T02:28:47;12.50;99.90
13960;DHT22;7052;51.050;3.716;2023-11-19T02:31:15;12.50;99.90
13960;DHT22;7052;51.050;3.716;2023-11-19T02:33:44;12.40;99.90
13960;DHT22;7052;51.050;3.716;2023-11-19T02:36:11;12.40;99.90
13960;DHT22;7052;51.050;3.716;2023-11-19T02:38:38;12.40;99.90
13960;DHT22;7052;51.050;3.716;2023-11-19T02:41:07;12.50;99.90
13960;DHT22;7052;51.050;3.716;2023-11-19T02:43:36;12.50;99.90
13960;DHT22;7052;51.050;3.716;2023-11-19T02:46:06;12.50;99.90
13960;DHT22;7052;51.050;3.716;2023-11-19T02:48:34;12.50;99.90
13960;DHT22;7052;51.050;3.716;2023-11-19T02:51:02;12.50;99.90
13960;DHT22;7052;51.050;3.716;2023-11-19T02:53:30;12.50;99.90
13960;DHT22;7052;51.050;3.716;2023-11-19T02:55:59;12.50;99.90
13960;DHT22;7052;51.050;3.716;2023-11-19T02:58:35;12.40;99.90
13960;DHT22;7052;51.050;3.716;2023-11-19T03:01:02;12.40;99.90
13960;DHT22;7052;51.050;3.716;2023-11-19T03:03:40;12.40;99.90
13960;DHT22;7052;51.050;3.716;2023-11-19T03:06:08;12.40;99.90
13960;DHT22;7052;51.050;3.716;2023-11-19T03:08:36;12.50;99.90
13960;DHT22;7052;51.050;3.716;2023-11-19T03:11:03;12.50;99.90
13960;DHT22;7052;51.050;3.716;2023-11-19T03:13:31;12.50;99.90
13960;DHT22;7052;51.050;3.716;2023-11-19T03:15:58;12.50;99.90
13960;DHT22;7052;51.050;3.716;2023-11-19T03:18:29;12.60;99.90
13960;DHT22;7052;51.050;3.716;2023-11-19T03:20:57;12.50;99.90
13960;DHT22;7052;51.050;3.716;2023-11-19T03:23:26;12.60;99.90
13960;DHT22;7052;51.050;3.716;2023-11-19T03:25:55;12.60;99.90
13960;DHT22;7052;51.050;3.716;2023-11-19T03:28:22;12.50;99.90
13960;DHT22;7052;51.050;3.716;2023-11-19T03:30:49;12.40;99.90
13960;DHT22;7052;51.050;3.716;2023-11-19T03:33:16;12.40;99.90
13960;DHT22;7052;51.050;3.716;2023-11-19T03:35:43;12.30;99.90
13960;DHT22;7052;51.050;3.716;2023-11-19T03:38:13;12.30;99.90
13960;DHT22;7052;51.050;3.716;2023-11-19T03:40:40;12.20;99.90
13960;DHT22;7052;51.050;3.716;2023-11-19T03:43:08;12.20;99.90
13960;DHT22;7052;51.050;3.716;2023-11-19T03:45:39;12.30;99.90
13960;DHT22;7052;51.050;3.716;2023-11-19T03:48:06;12.10;99.90
13960;DHT22;7052;51.050;3.716;2023-11-19T03:50:33;12.10;99.90
13960;DHT22;7052;51.050;3.716;2023-11-19T03:53:00;12.10;99.90
13960;DHT22;7052;51.050;3.716;2023-11-19T03:55:30;12.00;99.90
13960;DHT22;7052;51.050;3.716;2023-11-19T03:58:00;12.00;99.90
13960;DHT22;7052;51.050;3.716;2023-11-19T04:00:27;12.00;99.90
13960;DHT22;7052;51.050;3.716;2023-11-19T04:02:56;12.00;99.90
13960;DHT22;7052;51.050;3.716;2023-11-19T04:05:30;12.00;99.90
13960;DHT22;7052;51.050;3.716;2023-11-19T04:07:58;12.00;99.90
13960;DHT22;7052;51.050;3.716;2023-11-19T04:10:26;12.00;99.90
13960;DHT22;7052;51.050;3.716;2023-11-19T04:13:02;12.00;99.90
13960;DHT22;7052;51.050;3.716;2023-11-19T04:15:30;11.90;99.90
13960;DHT22;7052;51.050;3.716;2023-11-19T04:17:56;11.90;99.90
13960;DHT22;7052;51.050;3.716;2023-11-19T04:20:23;11.90;99.90
13960;DHT22;7052;51.050;3.716;2023-11-19T04:22:51;11.80;99.90
13960;DHT22;7052;51.050;3.716;2023-11-19T04:25:19;11.80;99.90
13960;DHT22;7052;51.050;3.716;2023-11-19T04:27:46;11.80;99.90
13960;DHT22;7052;51.050;3.716;2023-11-19T04:30:17;11.80;99.90
13960;DHT22;7052;51.050;3.716;2023-11-19T04:32:44;11.80;99.90
13960;DHT22;7052;51.050;3.716;2023-11-19T04:35:11;11.70;99.90
13960;DHT22;7052;51.050;3.716;2023-11-19T04:37:40;11.70;99.90
13960;DHT22;7052;51.050;3.716;2023-11-19T04:40:08;11.60;99.90
13960;DHT22;7052;51.050;3.716;2023-11-19T04:42:37;11.60;99.90
13960;DHT22;7052;51.050;3.716;2023-11-19T04:45:06;11.60;99.90
13960;DHT22;7052;51.050;3.716;2023-11-19T04:47:37;11.60;99.90
13960;DHT22;7052;51.050;3.716;2023-11-19T04:50:05;11.50;99.90
13960;DHT22;7052;51.050;3.716;2023-11-19T04:52:37;11.50;99.90
13960;DHT22;7052;51.050;3.716;2023-11-19T04:55:06;11.50;99.90
13960;DHT22;7052;51.050;3.716;2023-11-19T04:57:37;11.50;99.90
13960;DHT22;7052;51.050;3.716;2023-11-19T05:00:05;11.50;99.90
13960;DHT22;7052;51.050;3.716;2023-11-19T05:02:33;11.50;99.90
13960;DHT22;7052;51.050;3.716;2023-11-19T05:05:01;11.40;99.90
13960;DHT22;7052;51.050;3.716;2023-11-19T05:07:30;11.40;99.90
13960;DHT22;7052;51.050;3.716;2023-11-19T05:10:00;11.50;99.90
13960;DHT22;7052;51.050;3.716;2023-11-19T05:12:29;11.40;99.90
13960;DHT22;7052;51.050;3.716;2023-11-19T05:14:57;11.40;99.90
13960;DHT22;7052;51.050;3.716;2023-11-19T05:17:26;11.30;99.90
13960;DHT22;7052;51.050;3.716;2023-11-19T05:19:53;11.30;99.90
13960;DHT22;7052;51.050;3.716;2023-11-19T05:22:23;11.30;99.90
13960;DHT22;7052;51.050;3.716;2023-11-19T05:24:55;11.20;99.90
13960;DHT22;7052;51.050;3.716;2023-11-19T05:27:22;11.20;99.90
13960;DHT22;7052;51.050;3.716;2023-11-19T05:29:51;11.10;99.90
13960;DHT22;7052;51.050;3.716;2023-11-19T05:32:18;11.10;99.90
13960;DHT22;7052;51.050;3.716;2023-11-19T05:34:45;11.10;99.90
13960;DHT22;7052;51.050;3.716;2023-11-19T05:37:13;11.10;99.90
13960;DHT22;7052;51.050;3.716;2023-11-19T05:39:42;11.10;99.90
13960;DHT22;7052;51.050;3.716;2023-11-19T05:42:09;11.20;99.90
13960;DHT22;7052;51.050;3.716;2023-11-19T05:44:37;11.20;99.90
13960;DHT22;7052;51.050;3.716;2023-11-19T05:47:04;11.10;99.90
13960;DHT22;7052;51.050;3.716;2023-11-19T05:49:33;11.30;99.90
13960;DHT22;7052;51.050;3.716;2023-11-19T05:52:00;11.30;99.90
13960;DHT22;7052;51.050;3.716;2023-11-19T05:54:28;11.30;99.90
13960;DHT22;7052;51.050;3.716;2023-11-19T05:56:58;11.30;99.90
13960;DHT22;7052;51.050;3.716;2023-11-19T05:59:25;11.20;99.90
13960;DHT22;7052;51.050;3.716;2023-11-19T06:01:54;11.20;99.90
13960;DHT22;7052;51.050;3.716;2023-11-19T06:04:21;11.10;99.90
13960;DHT22;7052;51.050;3.716;2023-11-19T06:06:49;11.20;99.90
13960;DHT22;7052;51.050;3.716;2023-11-19T06:09:18;11.10;99.90
13960;DHT22;7052;51.050;3.716;2023-11-19T06:11:45;11.10;99.90
13960;DHT22;7052;51.050;3.716;2023-11-19T06:14:14;11.10;99.90
13960;DHT22;7052;51.050;3.716;2023-11-19T06:16:41;11.10;99.90
13960;DHT22;7052;51.050;3.716;2023-11-19T06:19:09;11.00;99.90
13960;DHT22;7052;51.050;3.716;2023-11-19T06:21:37;11.00;99.90
13960;DHT22;7052;51.050;3.716;2023-11-19T06:24:07;11.00;99.90
13960;DHT22;7052;51.050;3.716;2023-11-19T06:26:37;11.00;99.90
13960;DHT22;7052;51.050;3.716;2023-11-19T06:29:06;10.90;99.90
13960;DHT22;7052;51.050;3.716;2023-11-19T06:31:35;10.90;99.90
13960;DHT22;7052;51.050;3.716;2023-11-19T06:34:03;10.90;99.90
13960;DHT22;7052;51.050;3.716;2023-11-19T06:36:31;10.90;99.90
13960;DHT22;7052;51.050;3.716;2023-11-19T06:38:59;10.90;99.90
13960;DHT22;7052;51.050;3.716;2023-11-19T06:41:27;10.80;99.90
13960;DHT22;7052;51.050;3.716;2023-11-19T06:43:56;10.80;99.90
13960;DHT22;7052;51.050;3.716;2023-11-19T06:46:23;10.80;99.90
13960;DHT22;7052;51.050;3.716;2023-11-19T06:48:51;10.80;99.90
13960;DHT22;7052;51.050;3.716;2023-11-19T06:51:18;10.80;99.90
13960;DHT22;7052;51.050;3.716;2023-11-19T06:53:45;10.80;99.90
13960;DHT22;7052;51.050;3.716;2023-11-19T06:56:23;10.70;99.90
13960;DHT22;7052;51.050;3.716;2023-11-19T06:58:51;10.70;99.90
13960;DHT22;7052;51.050;3.716;2023-11-19T07:01:22;10.70;99.90
13960;DHT22;7052;51.050;3.716;2023-11-19T07:03:55;10.70;99.90
13960;DHT22;7052;51.050;3.716;2023-11-19T07:06:23;10.70;99.90
13960;DHT22;7052;51.050;3.716;2023-11-19T07:08:51;10.70;99.90
13960;DHT22;7052;51.050;3.716;2023-11-19T07:11:19;10.80;99.90
13960;DHT22;7052;51.050;3.716;2023-11-19T07:13:47;10.80;99.90
13960;DHT22;7052;51.050;3.716;2023-11-19T07:16:16;10.80;99.90
13960;DHT22;7052;51.050;3.716;2023-11-19T07:18:43;10.70;99.90
13960;DHT22;7052;51.050;3.716;2023-11-19T07:21:16;10.70;99.90
13960;DHT22;7052;51.050;3.716;2023-11-19T07:23:45;10.70;99.90
13960;DHT22;7052;51.050;3.716;2023-11-19T07:26:12;10.70;99.90
13960;DHT22;7052;51.050;3.716;2023-11-19T07:28:42;10.80;99.90
13960;DHT22;7052;51.050;3.716;2023-11-19T07:31:11;10.80;99.90
13960;DHT22;7052;51.050;3.716;2023-11-19T07:33:39;10.90;99.90
13960;DHT22;7052;51.050;3.716;2023-11-19T07:36:09;10.90;99.90
13960;DHT22;7052;51.050;3.716;2023-11-19T07:38:38;11.00;99.90
13960;DHT22;7052;51.050;3.716;2023-11-19T07:41:06;11.00;99.90
13960;DHT22;7052;51.050;3.716;2023-11-19T07:43:36;11.00;99.90
13960;DHT22;7052;51.050;3.716;2023-11-19T07:46:03;11.00;99.90
13960;DHT22;7052;51.050;3.716;2023-11-19T07:48:30;11.10;99.90
13960;DHT22;7052;51.050;3.716;2023-11-19T07:50:58;11.10;99.90
13960;DHT22;7052;51.050;3.716;2023-11-19T07:53:25;11.10;99.90
13960;DHT22;7052;51.050;3.716;2023-11-19T07:55:54;11.10;99.90
13960;DHT22;7052;51.050;3.716;2023-11-19T07:58:22;11.20;99.90
13960;DHT22;7052;51.050;3.716;2023-11-19T08:00:50;11.20;99.90
13960;DHT22;7052;51.050;3.716;2023-11-19T08:03:18;11.20;99.90
13960;DHT22;7052;51.050;3.716;2023-11-19T08:06:03;11.30;99.90
13960;DHT22;7052;51.050;3.716;2023-11-19T08:08:32;11.30;99.90
13960;DHT22;7052;51.050;3.716;2023-11-19T08:11:05;11.30;99.90
13960;DHT22;7052;51.050;3.716;2023-11-19T08:13:35;11.40;99.90
13960;DHT22;7052;51.050;3.716;2023-11-19T08:16:03;11.40;99.90
13960;DHT22;7052;51.050;3.716;2023-11-19T08:18:31;11.50;99.90
13960;DHT22;7052;51.050;3.716;2023-11-19T08:21:04;11.50;99.90
13960;DHT22;7052;51.050;3.716;2023-11-19T08:23:32;11.50;99.90
13960;DHT22;7052;51.050;3.716;2023-11-19T08:25:59;11.50;99.90
13960;DHT22;7052;51.050;3.716;2023-11-19T08:28:29;11.50;99.90
13960;DHT22;7052;51.050;3.716;2023-11-19T08:30:59;11.50;99.90
13960;DHT22;7052;51.050;3.716;2023-11-19T08:33:32;11.60;99.90
13960;DHT22;7052;51.050;3.716;2023-11-19T08:36:07;11.60;99.90
13960;DHT22;7052;51.050;3.716;2023-11-19T08:38:38;11.70;99.90
13960;DHT22;7052;51.050;3.716;2023-11-19T08:41:11;11.80;99.90
13960;DHT22;7052;51.050;3.716;2023-11-19T08:43:39;11.90;99.90
13960;DHT22;7052;51.050;3.716;2023-11-19T08:46:09;12.10;99.90
13960;DHT22;7052;51.050;3.716;2023-11-19T08:48:39;12.10;99.90
13960;DHT22;7052;51.050;3.716;2023-11-19T08:51:12;12.20;99.90
13960;DHT22;7052;51.050;3.716;2023-11-19T08:53:40;12.20;99.90
13960;DHT22;7052;51.050;3.716;2023-11-19T08:56:09;12.30;99.90
13960;DHT22;7052;51.050;3.716;2023-11-19T08:58:36;12.30;99.90
13960;DHT22;7052;51.050;3.716;2023-11-19T09:01:06;12.40;99.90
13960;DHT22;7052;51.050;3.716;2023-11-19T09:03:35;12.40;99.90
13960;DHT22;7052;51.050;3.716;2023-11-19T09:06:03;12.50;99.90
13960;DHT22;7052;51.050;3.716;2023-11-19T09:08:36;12.50;99.90
13960;DHT22;7052;51.050;3.716;2023-11-19T09:11:07;12.50;99.90
13960;DHT22;7052;51.050;3.716;2023-11-19T09:13:36;12.60;99.90
13960;DHT22;7052;51.050;3.716;2023-11-19T09:16:06;12.60;99.90
13960;DHT22;7052;51.050;3.716;2023-11-19T09:18:35;12.50;99.90
13960;DHT22;7052;51.050;3.716;2023-11-19T09:21:05;12.50;99.90
13960;DHT22;7052;51.050;3.716;2023-11-19T09:23:34;12.50;99.90
13960;DHT22;7052;51.050;3.716;2023-11-19T09:26:05;12.50;99.90
13960;DHT22;7052;51.050;3.716;2023-11-19T09:28:33;12.50;99.90
13960;DHT22;7052;51.050;3.716;2023-11-19T09:30:59;12.50;99.90
13960;DHT22;7052;51.050;3.716;2023-11-19T09:33:31;12.40;99.90
13960;DHT22;7052;51.050;3.716;2023-11-19T09:36:00;12.50;99.90
13960;DHT22;7052;51.050;3.716;2023-11-19T09:38:27;12.40;99.90
13960;DHT22;7052;51.050;3.716;2023-11-19T09:40:58;12.40;99.90
13960;DHT22;7052;51.050;3.716;2023-11-19T09:43:28;12.40;99.90
13960;DHT22;7052;51.050;3.716;2023-11-19T09:45:58;12.40;99.90
13960;DHT22;7052;51.050;3.716;2023-11-19T09:48:32;12.50;99.90
13960;DHT22;7052;51.050;3.716;2023-11-19T09:51:01;12.60;99.90
13960;DHT22;7052;51.050;3.716;2023-11-19T09:53:31;12.70;99.90
13960;DHT22;7052;51.050;3.716;2023-11-19T09:56:00;12.80;99.90
13960;DHT22;7052;51.050;3.716;2023-11-19T09:58:41;12.90;99.90
13960;DHT22;7052;51.050;3.716;2023-11-19T10:01:08;12.90;99.90
13960;DHT22;7052;51.050;3.716;2023-11-19T10:03:39;12.90;99.90
13960;DHT22;7052;51.050;3.716;2023-11-19T10:06:09;12.90;99.90
13960;DHT22;7052;51.050;3.716;2023-11-19T10:08:37;12.90;99.90
13960;DHT22;7052;51.050;3.716;2023-11-19T10:11:06;12.80;99.90
13960;DHT22;7052;51.050;3.716;2023-11-19T10:13:35;12.80;99.90
13960;DHT22;7052;51.050;3.716;2023-11-19T10:16:04;12.80;99.90
13960;DHT22;7052;51.050;3.716;2023-11-19T10:18:32;12.70;99.90
13960;DHT22;7052;51.050;3.716;2023-11-19T10:21:05;12.70;99.90
13960;DHT22;7052;51.050;3.716;2023-11-19T10:23:48;12.70;99.90
13960;DHT22;7052;51.050;3.716;2023-11-19T10:26:15;12.60;99.90
13960;DHT22;7052;51.050;3.716;2023-11-19T10:28:43;12.60;99.90
13960;DHT22;7052;51.050;3.716;2023-11-19T10:31:12;12.60;99.90
13960;DHT22;7052;51.050;3.716;2023-11-19T10:33:40;12.60;99.90
13960;DHT22;7052;51.050;3.716;2023-11-19T10:36:11;12.70;99.90
13960;DHT22;7052;51.050;3.716;2023-11-19T10:38:39;12.80;99.90
13960;DHT22;7052;51.050;3.716;2023-11-19T10:41:07;12.80;99.90
13960;DHT22;7052;51.050;3.716;2023-11-19T10:43:43;13.00;99.90
13960;DHT22;7052;51.050;3.716;2023-11-19T10:46:12;13.00;99.90
13960;DHT22;7052;51.050;3.716;2023-11-19T10:48:39;13.00;99.90
13960;DHT22;7052;51.050;3.716;2023-11-19T10:51:07;13.00;99.90
13960;DHT22;7052;51.050;3.716;2023-11-19T10:53:40;13.10;99.90
13960;DHT22;7052;51.050;3.716;2023-11-19T10:56:10;13.10;99.90
13960;DHT22;7052;51.050;3.716;2023-11-19T10:58:44;13.10;99.90
13960;DHT22;7052;51.050;3.716;2023-11-19T11:01:26;13.10;99.90
13960;DHT22;7052;51.050;3.716;2023-11-19T11:04:00;13.10;99.90
13960;DHT22;7052;51.050;3.716;2023-11-19T11:06:30;13.10;99.90
13960;DHT22;7052;51.050;3.716;2023-11-19T11:09:04;13.10;99.90
13960;DHT22;7052;51.050;3.716;2023-11-19T11:11:34;13.20;99.90
13960;DHT22;7052;51.050;3.716;2023-11-19T11:14:03;13.20;99.90
13960;DHT22;7052;51.050;3.716;2023-11-19T11:16:31;13.30;99.90
13960;DHT22;7052;51.050;3.716;2023-11-19T11:18:58;13.30;99.90
13960;DHT22;7052;51.050;3.716;2023-11-19T11:21:26;13.40;99.90
13960;DHT22;7052;51.050;3.716;2023-11-19T11:24:20;13.50;99.90
13960;DHT22;7052;51.050;3.716;2023-11-19T11:27:13;13.70;99.90
13960;DHT22;7052;51.050;3.716;2023-11-19T11:29:55;13.70;99.90
13960;DHT22;7052;51.050;3.716;2023-11-19T11:32:33;13.70;99.90
13960;DHT22;7052;51.050;3.716;2023-11-19T11:35:19;13.60;99.90
13960;DHT22;7052;51.050;3.716;2023-11-19T11:38:00;13.50;99.90
13960;DHT22;7052;51.050;3.716;2023-11-19T11:40:35;13.40;99.90
13960;DHT22;7052;51.050;3.716;2023-11-19T11:43:02;13.40;99.90
13960;DHT22;7052;51.050;3.716;2023-11-19T11:45:35;13.30;99.90
13960;DHT22;7052;51.050;3.716;2023-11-19T11:48:12;13.20;99.90
13960;DHT22;7052;51.050;3.716;2023-11-19T11:50:49;13.20;99.90
13960;DHT22;7052;51.050;3.716;2023-11-19T11:53:21;13.30;99.90
13960;DHT22;7052;51.050;3.716;2023-11-19T11:56:00;13.00;99.90
13960;DHT22;7052;51.050;3.716;2023-11-19T11:58:35;13.00;99.90
13960;DHT22;7052;51.050;3.716;2023-11-19T12:01:04;12.90;99.90
13960;DHT22;7052;51.050;3.716;2023-11-19T12:03:33;13.00;99.90
13960;DHT22;7052;51.050;3.716;2023-11-19T12:06:04;13.00;99.90
13960;DHT22;7052;51.050;3.716;2023-11-19T12:08:34;12.90;99.90
13960;DHT22;7052;51.050;3.716;2023-11-19T12:11:09;12.90;99.90
13960;DHT22;7052;51.050;3.716;2023-11-19T12:13:55;13.00;99.90
13960;DHT22;7052;51.050;3.716;2023-11-19T12:16:25;13.00;99.90
13960;DHT22;7052;51.050;3.716;2023-11-19T12:18:54;13.10;99.90
13960;DHT22;7052;51.050;3.716;2023-11-19T12:21:29;13.20;99.90
13960;DHT22;7052;51.050;3.716;2023-11-19T12:23:58;13.30;99.90
13960;DHT22;7052;51.050;3.716;2023-11-19T12:26:40;13.30;99.90
13960;DHT22;7052;51.050;3.716;2023-11-19T12:29:08;13.40;99.90
13960;DHT22;7052;51.050;3.716;2023-11-19T12:31:35;13.50;99.90
13960;DHT22;7052;51.050;3.716;2023-11-19T12:34:07;13.40;99.90
13960;DHT22;7052;51.050;3.716;2023-11-19T12:36:40;13.30;99.90
13960;DHT22;7052;51.050;3.716;2023-11-19T12:39:09;13.30;99.90
13960;DHT22;7052;51.050;3.716;2023-11-19T12:41:56;13.20;99.90
13960;DHT22;7052;51.050;3.716;2023-11-19T12:44:31;13.20;99.90
13960;DHT22;7052;51.050;3.716;2023-11-19T12:47:07;13.10;99.90
13960;DHT22;7052;51.050;3.716;2023-11-19T12:49:58;13.00;99.90
13960;DHT22;7052;51.050;3.716;2023-11-19T12:52:25;13.00;99.90
13960;DHT22;7052;51.050;3.716;2023-11-19T12:54:53;12.90;99.90
13960;DHT22;7052;51.050;3.716;2023-11-19T12:57:36;13.00;99.90
13960;DHT22;7052;51.050;3.716;2023-11-19T13:00:04;13.00;99.90
13960;DHT22;7052;51.050;3.716;2023-11-19T13:02:50;13.00;99.90
13960;DHT22;7052;51.050;3.716;2023-11-19T13:05:26;13.00;99.90
13960;DHT22;7052;51.050;3.716;2023-11-19T13:08:07;13.00;99.90
13960;DHT22;7052;51.050;3.716;2023-11-19T13:10:50;13.00;99.90
13960;DHT22;7052;51.050;3.716;2023-11-19T13:16:32;13.10;99.90
13960;DHT22;7052;51.050;3.716;2023-11-19T13:19:02;13.10;99.90
13960;DHT22;7052;51.050;3.716;2023-11-19T13:21:33;13.20;99.90
13960;DHT22;7052;51.050;3.716;2023-11-19T13:24:00;13.20;99.90
13960;DHT22;7052;51.050;3.716;2023-11-19T13:26:27;13.20;99.90
13960;DHT22;7052;51.050;3.716;2023-11-19T13:28:58;13.20;99.90
13960;DHT22;7052;51.050;3.716;2023-11-19T13:31:26;13.10;99.90
13960;DHT22;7052;51.050;3.716;2023-11-19T13:33:57;13.10;99.90
13960;DHT22;7052;51.050;3.716;2023-11-19T13:36:27;13.10;99.90
13960;DHT22;7052;51.050;3.716;2023-11-19T13:38:55;13.00;99.90
13960;DHT22;7052;51.050;3.716;2023-11-19T13:41:25;13.10;99.90
13960;DHT22;7052;51.050;3.716;2023-11-19T13:43:53;13.10;99.90
13960;DHT22;7052;51.050;3.716;2023-11-19T13:46:25;13.10;99.90
13960;DHT22;7052;51.050;3.716;2023-11-19T13:48:53;13.10;99.90
13960;DHT22;7052;51.050;3.716;2023-11-19T13:51:22;13.00;99.90
13960;DHT22;7052;51.050;3.716;2023-11-19T13:53:57;13.00;99.90
13960;DHT22;7052;51.050;3.716;2023-11-19T13:56:39;13.10;99.90
13960;DHT22;7052;51.050;3.716;2023-11-19T13:59:13;13.10;99.90
13960;DHT22;7052;51.050;3.716;2023-11-19T14:01:44;13.00;99.90
13960;DHT22;7052;51.050;3.716;2023-11-19T14:04:12;13.00;99.90
13960;DHT22;7052;51.050;3.716;2023-11-19T14:06:39;13.00;99.90
13960;DHT22;7052;51.050;3.716;2023-11-19T14:09:10;12.80;99.90
13960;DHT22;7052;51.050;3.716;2023-11-19T14:11:38;12.90;99.90
13960;DHT22;7052;51.050;3.716;2023-11-19T14:14:05;12.80;99.90
13960;DHT22;7052;51.050;3.716;2023-11-19T14:16:33;12.80;99.90
13960;DHT22;7052;51.050;3.716;2023-11-19T14:19:01;12.80;99.90
13960;DHT22;7052;51.050;3.716;2023-11-19T14:21:31;12.70;99.90
13960;DHT22;7052;51.050;3.716;2023-11-19T14:23:58;12.70;99.90
13960;DHT22;7052;51.050;3.716;2023-11-19T14:26:25;12.70;99.90
13960;DHT22;7052;51.050;3.716;2023-11-19T14:28:56;12.60;99.90
13960;DHT22;7052;51.050;3.716;2023-11-19T14:31:31;12.60;99.90
13960;DHT22;7052;51.050;3.716;2023-11-19T14:33:58;12.50;99.90
13960;DHT22;7052;51.050;3.716;2023-11-19T14:36:32;12.50;99.90
13960;DHT22;7052;51.050;3.716;2023-11-19T14:38:59;12.50;99.90
13960;DHT22;7052;51.050;3.716;2023-11-19T14:41:26;12.50;99.90
13960;DHT22;7052;51.050;3.716;2023-11-19T14:43:53;12.50;99.90
13960;DHT22;7052;51.050;3.716;2023-11-19T14:46:21;12.50;99.90
13960;DHT22;7052;51.050;3.716;2023-11-19T14:48:48;12.60;99.90
13960;DHT22;7052;51.050;3.716;2023-11-19T14:51:15;12.60;99.90
13960;DHT22;7052;51.050;3.716;2023-11-19T14:53:46;12.60;99.90
13960;DHT22;7052;51.050;3.716;2023-11-19T14:56:13;12.60;99.90
13960;DHT22;7052;51.050;3.716;2023-11-19T14:58:41;12.60;99.90
13960;DHT22;7052;51.050;3.716;2023-11-19T15:01:12;12.70;99.90
13960;DHT22;7052;51.050;3.716;2023-11-19T15:03:40;12.70;99.90
13960;DHT22;7052;51.050;3.716;2023-11-19T15:06:07;12.80;99.90
13960;DHT22;7052;51.050;3.716;2023-11-19T15:08:34;12.80;99.90
13960;DHT22;7052;51.050;3.716;2023-11-19T15:11:03;13.00;99.90
13960;DHT22;7052;51.050;3.716;2023-11-19T15:13:32;12.80;99.90
13960;DHT22;7052;51.050;3.716;2023-11-19T15:15:59;12.70;99.90
13960;DHT22;7052;51.050;3.716;2023-11-19T15:18:30;12.70;99.90
13960;DHT22;7052;51.050;3.716;2023-11-19T15:21:00;12.90;99.90
13960;DHT22;7052;51.050;3.716;2023-11-19T15:23:32;12.90;99.90
13960;DHT22;7052;51.050;3.716;2023-11-19T15:26:05;12.80;99.90
13960;DHT22;7052;51.050;3.716;2023-11-19T15:28:35;12.70;99.90
13960;DHT22;7052;51.050;3.716;2023-11-19T15:31:04;12.90;99.90
13960;DHT22;7052;51.050;3.716;2023-11-19T15:33:31;12.70;99.90
13960;DHT22;7052;51.050;3.716;2023-11-19T15:35:58;12.70;99.90
13960;DHT22;7052;51.050;3.716;2023-11-19T15:38:34;12.60;99.90
13960;DHT22;7052;51.050;3.716;2023-11-19T15:41:09;12.50;99.90
13960;DHT22;7052;51.050;3.716;2023-11-19T15:43:38;12.50;99.90
13960;DHT22;7052;51.050;3.716;2023-11-19T15:46:06;12.40;99.90
13960;DHT22;7052;51.050;3.716;2023-11-19T15:48:33;12.50;99.90
13960;DHT22;7052;51.050;3.716;2023-11-19T15:51:01;12.40;99.90
13960;DHT22;7052;51.050;3.716;2023-11-19T15:53:29;12.40;99.90
13960;DHT22;7052;51.050;3.716;2023-11-19T15:55:57;12.40;99.90
13960;DHT22;7052;51.050;3.716;2023-11-19T15:58:27;12.40;99.90
13960;DHT22;7052;51.050;3.716;2023-11-19T16:01:00;12.30;99.90
13960;DHT22;7052;51.050;3.716;2023-11-19T16:03:27;12.30;99.90
13960;DHT22;7052;51.050;3.716;2023-11-19T16:05:56;12.30;99.90